Time,TemperatureF,DewpointF,PressureIn,WindDirection,WindDirectionDegrees,WindSpeedMPH,WindSpeedGustMPH,Humidity,HourlyPrecipIn,Conditions,Clouds,dailyrainin,SolarRadiationWatts/m^2,SoftwareType,DateUTC
2013-08-31 00:01:00,71.2,70.0,29.97,East,100,0.0,0.0,96,0.00,CLR,OVC,0.01,0.0,WeatherDisplay:10.37,2013-08-31 04:01:00,
2013-08-31 00:02:00,71.2,70.0,29.97,East,100,0.0,0.0,96,0.00,CLR,OVC,0.01,0.0,WeatherDisplay:10.37,2013-08-31 04:02:00,
2013-08-31 00:07:00,71.2,70.0,29.97,East,100,0.0,0.0,96,0.00,RA,OVC,0.00,0.0,WeatherDisplay:10.37,2013-08-31 04:07:00,
2013-08-31 00:12:00,71.2,70.0,29.97,East,100,0.0,0.0,96,0.00,RA,OVC,0.00,0.0,WeatherDisplay:10.37,2013-08-31 04:12:00,
2013-08-31 00:17:00,70.9,69.7,29.96,East,100,0.0,0.0,96,0.00,CLR,OVC,0.00,0.0,WeatherDisplay:10.37,2013-08-31 04:17:00,
2013-08-31 00:22:00,71.2,70.0,29.97,East,100,0.0,0.0,96,0.00,CLR,OVC,0.00,0.0,WeatherDisplay:10.37,2013-08-31 04:22:00,
2013-08-31 00:27:00,70.7,69.5,29.96,East,100,0.0,0.0,96,0.00,CLR,OVC,0.00,0.0,WeatherDisplay:10.37,2013-08-31 04:27:00,
2013-08-31 00:32:00,71.2,70.0,29.97,East,100,0.0,0.0,96,0.00,CLR,OVC,0.00,0.0,WeatherDisplay:10.37,2013-08-31 04:32:00,
2013-08-31 00:37:00,70.6,69.4,29.96,East,100,0.0,0.0,96,0.00,CLR,OVC,0.00,0.0,WeatherDisplay:10.37,2013-08-31 04:37:00,
2013-08-31 00:42:00,71.2,70.0,29.97,East,100,0.0,0.0,96,0.00,CLR,OVC,0.00,0.0,WeatherDisplay:10.37,2013-08-31 04:42:00,
2013-08-31 00:47:00,70.4,69.5,29.96,East,100,0.0,0.0,97,0.00,CLR,OVC,0.00,0.0,WeatherDisplay:10.37,2013-08-31 04:47:00,
2013-08-31 00:52:00,71.2,70.0,29.97,East,100,0.0,0.0,96,0.00,CLR,OVC,0.00,0.0,WeatherDisplay:10.37,2013-08-31 04:52:00,
2013-08-31 00:57:00,70.2,69.0,29.96,East,100,0.0,0.0,96,0.00,CLR,OVC,0.00,0.0,WeatherDisplay:10.37,2013-08-31 04:57:00,
2013-08-31 01:02:00,70.0,68.8,29.96,East,100,0.0,0.0,96,0.00,CLR,OVC,0.00,0.0,WeatherDisplay:10.37,2013-08-31 05:02:00,
2013-08-31 01:07:00,71.2,70.0,29.97,East,100,0.0,0.0,96,0.00,CLR,OVC,0.00,0.0,WeatherDisplay:10.37,2013-08-31 05:07:00,
2013-08-31 01:12:00,69.9,69.0,29.96,East,100,0.0,0.0,97,0.00,CLR,OVC,0.00,0.0,WeatherDisplay:10.37,2013-08-31 05:12:00,
2013-08-31 01:17:00,69.8,68.9,29.96,East,100,0.0,0.0,97,0.00,CLR,OVC,0.00,0.0,WeatherDisplay:10.37,2013-08-31 05:17:00,
2013-08-31 01:22:00,69.7,68.8,29.96,East,100,0.0,0.0,97,0.00,CLR,OVC,0.00,0.0,WeatherDisplay:10.37,2013-08-31 05:22:00,
2013-08-31 01:27:00,69.7,68.8,29.96,East,100,0.0,0.0,97,0.00,CLR,OVC,0.00,0.0,WeatherDisplay:10.37,2013-08-31 05:27:00,
2013-08-31 01:32:00,69.5,68.3,29.96,East,100,0.0,0.0,96,0.00,CLR,OVC,0.00,0.0,WeatherDisplay:10.37,2013-08-31 05:32:00,
2013-08-31 01:37:00,69.5,68.6,29.96,East,100,0.0,0.0,97,0.00,CLR,OVC,0.00,0.0,WeatherDisplay:10.37,2013-08-31 05:37:00,
2013-08-31 01:42:00,69.5,68.6,29.96,East,100,0.0,0.0,97,0.00,CLR,OVC,0.00,0.0,WeatherDisplay:10.37,2013-08-31 05:42:00,
2013-08-31 01:47:00,69.5,68.6,29.96,East,100,0.0,0.0,97,0.00,CLR,OVC,0.00,0.0,WeatherDisplay:10.37,2013-08-31 05:47:00,
2013-08-31 01:52:00,69.5,68.6,29.96,East,100,0.0,0.0,97,0.00,CLR,OVC,0.00,0.0,WeatherDisplay:10.37,2013-08-31 05:52:00,
2013-08-31 01:57:00,69.5,68.6,29.96,East,100,0.0,0.0,97,0.00,CLR,OVC,0.00,0.0,WeatherDisplay:10.37,2013-08-31 05:57:00,
2013-08-31 02:02:00,69.5,68.6,29.96,East,100,0.0,0.0,97,0.00,CLR,OVC,0.00,0.0,WeatherDisplay:10.37,2013-08-31 06:02:00,
2013-08-31 02:07:00,69.5,68.6,29.96,East,100,0.0,0.0,97,0.00,CLR,OVC,0.00,0.0,WeatherDisplay:10.37,2013-08-31 06:07:00,
2013-08-31 02:12:00,69.2,68.3,29.95,East,100,0.0,0.0,97,0.00,CLR,OVC,0.00,0.0,WeatherDisplay:10.37,2013-08-31 06:12:00,
2013-08-31 02:17:00,69.2,68.3,29.96,East,100,0.0,0.0,97,0.00,CLR,OVC,0.00,0.0,WeatherDisplay:10.37,2013-08-31 06:17:00,
2013-08-31 02:22:00,69.2,68.3,29.95,East,100,0.0,0.0,97,0.00,CLR,OVC,0.00,0.0,WeatherDisplay:10.37,2013-08-31 06:22:00,
2013-08-31 02:27:00,68.8,67.9,29.95,East,100,0.0,0.0,97,0.00,CLR,OVC,0.00,0.0,WeatherDisplay:10.37,2013-08-31 06:27:00,
2013-08-31 02:32:00,68.8,67.9,29.95,East,100,0.0,0.0,97,0.00,CLR,OVC,0.00,0.0,WeatherDisplay:10.37,2013-08-31 06:32:00,
2013-08-31 02:37:00,68.6,67.7,29.94,East,100,0.0,0.0,97,0.00,CLR,OVC,0.00,0.0,WeatherDisplay:10.37,2013-08-31 06:37:00,
2013-08-31 02:42:00,68.6,67.7,29.94,East,100,0.0,0.0,97,0.00,CLR,OVC,0.00,0.0,WeatherDisplay:10.37,2013-08-31 06:42:00,
2013-08-31 02:47:00,68.6,67.7,29.94,East,100,0.0,0.0,97,0.00,CLR,OVC,0.00,0.0,WeatherDisplay:10.37,2013-08-31 06:47:00,
2013-08-31 02:52:00,68.8,67.9,29.94,East,100,0.0,0.0,97,0.00,CLR,OVC,0.00,0.0,WeatherDisplay:10.37,2013-08-31 06:52:00,
2013-08-31 02:57:00,68.8,67.9,29.94,East,100,0.0,0.0,97,0.00,CLR,OVC,0.00,0.0,WeatherDisplay:10.37,2013-08-31 06:57:00,
2013-08-31 03:02:00,68.8,67.9,29.94,East,100,0.0,0.0,97,0.00,CLR,OVC,0.00,0.0,WeatherDisplay:10.37,2013-08-31 07:02:00,
2013-08-31 03:07:00,68.6,67.7,29.94,East,100,0.0,0.0,97,0.00,CLR,OVC,0.00,0.0,WeatherDisplay:10.37,2013-08-31 07:07:00,
2013-08-31 03:13:00,68.5,67.6,29.94,East,100,0.0,0.0,97,0.00,CLR,OVC,0.00,0.0,WeatherDisplay:10.37,2013-08-31 07:13:00,
2013-08-31 03:18:00,68.4,67.5,29.94,East,100,0.0,0.0,97,0.00,CLR,OVC,0.00,0.0,WeatherDisplay:10.37,2013-08-31 07:18:00,
2013-08-31 03:23:00,68.4,67.5,29.94,East,100,0.0,0.0,97,0.00,CLR,OVC,0.00,0.0,WeatherDisplay:10.37,2013-08-31 07:23:00,
2013-08-31 03:28:00,68.5,67.6,29.94,East,100,0.0,0.0,97,0.00,CLR,OVC,0.00,0.0,WeatherDisplay:10.37,2013-08-31 07:28:00,
2013-08-31 03:33:00,68.3,67.4,29.94,East,100,0.0,0.0,97,0.00,CLR,OVC,0.00,0.0,WeatherDisplay:10.37,2013-08-31 07:33:00,
2013-08-31 03:38:00,68.3,67.4,29.94,East,100,0.0,0.0,97,0.00,CLR,OVC,0.00,0.0,WeatherDisplay:10.37,2013-08-31 07:38:00,
2013-08-31 03:43:00,68.3,67.4,29.94,East,100,0.0,0.0,97,0.00,CLR,OVC,0.00,0.0,WeatherDisplay:10.37,2013-08-31 07:43:00,
2013-08-31 03:48:00,68.5,67.6,29.94,East,100,0.0,0.0,97,0.00,CLR,OVC,0.00,0.0,WeatherDisplay:10.37,2013-08-31 07:48:00,
2013-08-31 03:53:00,68.2,67.3,29.94,East,100,0.0,0.0,97,0.00,CLR,OVC,0.00,0.0,WeatherDisplay:10.37,2013-08-31 07:53:00,
2013-08-31 03:58:00,68.3,67.4,29.94,East,100,0.0,0.0,97,0.00,CLR,OVC,0.00,0.0,WeatherDisplay:10.37,2013-08-31 07:58:00,
2013-08-31 04:03:00,68.3,67.4,29.94,East,100,0.0,0.0,97,0.00,CLR,OVC,0.00,0.0,WeatherDisplay:10.37,2013-08-31 08:03:00,
2013-08-31 04:08:00,68.4,67.8,29.94,East,100,0.0,0.0,98,0.00,CLR,OVC,0.00,0.0,WeatherDisplay:10.37,2013-08-31 08:08:00,
2013-08-31 04:13:00,68.4,67.8,29.94,East,100,0.0,0.0,98,0.00,CLR,OVC,0.00,0.0,WeatherDisplay:10.37,2013-08-31 08:13:00,
2013-08-31 04:18:00,68.3,67.4,29.94,East,100,0.0,0.0,97,0.00,CLR,OVC,0.00,0.0,WeatherDisplay:10.37,2013-08-31 08:18:00,
2013-08-31 04:23:00,68.4,67.8,29.95,East,100,0.0,0.0,98,0.00,CLR,OVC,0.00,0.0,WeatherDisplay:10.37,2013-08-31 08:23:00,
2013-08-31 04:28:00,68.3,67.4,29.94,East,100,0.0,0.0,97,0.00,CLR,OVC,0.00,0.0,WeatherDisplay:10.37,2013-08-31 08:28:00,
2013-08-31 04:33:00,68.3,67.4,29.94,East,100,0.0,0.0,97,0.00,CLR,OVC,0.00,0.0,WeatherDisplay:10.37,2013-08-31 08:33:00,
2013-08-31 04:38:00,68.4,67.8,29.94,East,99,0.0,0.0,98,0.00,CLR,OVC,0.00,0.0,WeatherDisplay:10.37,2013-08-31 08:38:00,
2013-08-31 04:43:00,68.4,67.8,29.94,East,99,0.0,0.0,98,0.00,CLR,OVC,0.00,0.0,WeatherDisplay:10.37,2013-08-31 08:43:00,
2013-08-31 04:48:00,68.4,67.8,29.94,East,99,0.0,0.0,98,0.00,CLR,OVC,0.00,0.0,WeatherDisplay:10.37,2013-08-31 08:48:00,
2013-08-31 04:53:00,68.4,67.8,29.94,East,99,0.0,0.0,98,0.00,CLR,OVC,0.00,0.0,WeatherDisplay:10.37,2013-08-31 08:53:00,
2013-08-31 04:58:00,68.4,67.8,29.94,East,99,0.0,0.0,98,0.00,CLR,OVC,0.00,0.0,WeatherDisplay:10.37,2013-08-31 08:58:00,
2013-08-31 05:03:00,68.4,67.8,29.94,East,99,0.0,0.0,98,0.00,CLR,OVC,0.00,0.0,WeatherDisplay:10.37,2013-08-31 09:03:00,
2013-08-31 05:08:00,68.4,67.8,29.94,East,99,0.0,0.0,98,0.00,CLR,OVC,0.00,0.0,WeatherDisplay:10.37,2013-08-31 09:08:00,
2013-08-31 05:13:00,68.4,67.8,29.94,East,99,0.0,0.0,98,0.00,CLR,OVC,0.00,0.0,WeatherDisplay:10.37,2013-08-31 09:13:00,
2013-08-31 05:18:00,68.4,67.8,29.94,East,99,0.0,0.0,98,0.00,CLR,OVC,0.00,0.0,WeatherDisplay:10.37,2013-08-31 09:18:00,
2013-08-31 05:23:00,68.4,67.8,29.94,East,99,0.0,0.0,98,0.00,CLR,OVC,0.00,0.0,WeatherDisplay:10.37,2013-08-31 09:23:00,
2013-08-31 05:28:00,68.0,67.4,29.95,East,99,0.0,0.0,98,0.00,CLR,OVC,0.00,0.0,WeatherDisplay:10.37,2013-08-31 09:28:00,
2013-08-31 05:33:00,68.4,67.8,29.94,East,99,0.0,0.0,98,0.00,CLR,OVC,0.00,0.0,WeatherDisplay:10.37,2013-08-31 09:33:00,
2013-08-31 05:38:00,68.3,67.7,29.95,East,83,0.0,0.0,98,0.00,CLR,OVC,0.00,0.0,WeatherDisplay:10.37,2013-08-31 09:38:00,
2013-08-31 05:43:00,68.3,67.7,29.95,East,83,0.0,0.0,98,0.00,CLR,OVC,0.00,0.0,WeatherDisplay:10.37,2013-08-31 09:43:00,
2013-08-31 05:48:00,68.4,67.8,29.95,East,83,0.0,0.0,98,0.00,CLR,OVC,0.00,0.0,WeatherDisplay:10.37,2013-08-31 09:48:00,
2013-08-31 05:53:00,68.3,67.7,29.95,East,83,0.0,0.0,98,0.00,CLR,OVC,0.00,0.0,WeatherDisplay:10.37,2013-08-31 09:53:00,
2013-08-31 05:58:00,68.2,67.6,29.95,East,83,0.0,0.0,98,0.00,CLR,OVC,0.00,0.0,WeatherDisplay:10.37,2013-08-31 09:58:00,
2013-08-31 06:03:00,68.4,67.8,29.95,East,83,0.0,0.0,98,0.00,CLR,OVC,0.00,0.0,WeatherDisplay:10.37,2013-08-31 10:03:00,
2013-08-31 06:08:00,68.0,67.4,29.95,East,83,0.0,0.0,98,0.00,CLR,OVC,0.00,0.0,WeatherDisplay:10.37,2013-08-31 10:08:00,
2013-08-31 06:13:00,67.9,67.3,29.95,East,83,0.0,0.0,98,0.00,CLR,OVC,0.00,0.0,WeatherDisplay:10.37,2013-08-31 10:13:00,
2013-08-31 06:18:00,67.8,67.2,29.96,East,83,0.0,0.0,98,0.00,OVC,,0.00,0.0,WeatherDisplay:10.37,2013-08-31 10:18:00,
2013-08-31 06:23:00,68.4,67.8,29.95,East,83,0.0,0.0,98,0.00,OVC,,0.00,0.0,WeatherDisplay:10.37,2013-08-31 10:23:00,
2013-08-31 06:28:00,67.7,67.1,29.96,East,83,0.0,0.0,98,0.00,OVC,,0.00,0.0,WeatherDisplay:10.37,2013-08-31 10:28:00,
2013-08-31 06:33:00,68.4,67.8,29.95,East,83,0.0,0.0,98,0.00,OVC,,0.00,0.0,WeatherDisplay:10.37,2013-08-31 10:33:00,
2013-08-31 06:38:00,67.6,67.0,29.96,East,83,0.0,0.0,98,0.00,OVC,,0.00,0.0,WeatherDisplay:10.37,2013-08-31 10:38:00,
2013-08-31 06:43:00,68.4,67.8,29.95,East,83,0.0,0.0,98,0.00,OVC,,0.00,0.0,WeatherDisplay:10.37,2013-08-31 10:43:00,
2013-08-31 06:48:00,68.4,67.8,29.95,East,83,0.0,0.0,98,0.00,OVC,,0.00,0.0,WeatherDisplay:10.37,2013-08-31 10:48:00,
2013-08-31 06:53:00,68.4,67.8,29.95,East,83,0.0,0.0,98,0.00,OVC,,0.00,0.0,WeatherDisplay:10.37,2013-08-31 10:53:00,
2013-08-31 06:58:00,68.4,67.8,29.95,East,83,0.0,0.0,98,0.00,OVC,,0.00,0.0,WeatherDisplay:10.37,2013-08-31 10:58:00,
2013-08-31 07:03:00,67.6,67.0,29.96,East,83,0.0,0.0,98,0.00,OVC,,0.00,0.0,WeatherDisplay:10.37,2013-08-31 11:03:00,
2013-08-31 07:08:00,67.6,67.0,29.96,East,83,0.0,0.0,98,0.00,OVC,,0.00,0.0,WeatherDisplay:10.37,2013-08-31 11:08:00,
2013-08-31 07:13:00,67.8,67.2,29.97,East,83,0.0,0.0,98,0.00,OVC,,0.00,0.0,WeatherDisplay:10.37,2013-08-31 11:13:00,
2013-08-31 07:18:00,68.4,67.8,29.95,East,83,0.0,0.0,98,0.00,OVC,,0.00,0.0,WeatherDisplay:10.37,2013-08-31 11:18:00,
2013-08-31 07:23:00,67.8,67.2,29.97,East,83,0.0,0.0,98,0.00,OVC,,0.00,0.0,WeatherDisplay:10.37,2013-08-31 11:23:00,
2013-08-31 07:28:00,67.8,67.2,29.97,East,83,0.0,0.0,98,0.00,OVC,,0.00,0.0,WeatherDisplay:10.37,2013-08-31 11:28:00,
2013-08-31 07:33:00,68.4,67.8,29.95,East,83,0.0,0.0,98,0.00,OVC,,0.00,0.0,WeatherDisplay:10.37,2013-08-31 11:33:00,
2013-08-31 07:38:00,69.9,69.6,29.97,East,83,0.0,0.0,99,0.00,OVC,,0.00,0.0,WeatherDisplay:10.37,2013-08-31 11:38:00,
2013-08-31 07:43:00,69.9,69.6,29.97,East,83,0.0,0.0,99,0.00,OVC,,0.00,0.0,WeatherDisplay:10.37,2013-08-31 11:43:00,
2013-08-31 07:48:00,69.9,69.6,29.97,East,83,0.0,0.0,99,0.00,OVC,,0.00,0.0,WeatherDisplay:10.37,2013-08-31 11:48:00,
2013-08-31 07:53:00,69.9,69.6,29.97,East,83,0.0,0.0,99,0.00,OVC,,0.00,0.0,WeatherDisplay:10.37,2013-08-31 11:53:00,
2013-08-31 07:58:00,69.9,69.6,29.97,East,83,0.0,0.0,99,0.00,OVC,,0.00,0.0,WeatherDisplay:10.37,2013-08-31 11:58:00,
2013-08-31 08:03:00,69.9,69.6,29.97,East,83,0.0,0.0,99,0.00,OVC,,0.00,0.0,WeatherDisplay:10.37,2013-08-31 12:03:00,
2013-08-31 08:08:00,69.9,69.6,29.97,East,83,0.0,0.0,99,0.00,OVC,,0.00,0.0,WeatherDisplay:10.37,2013-08-31 12:08:00,
2013-08-31 08:13:00,72.9,72.3,29.96,North,9,0.9,3.5,98,0.00,OVC,,0.00,0.0,WeatherDisplay:10.37,2013-08-31 12:13:00,
2013-08-31 08:18:00,72.9,72.3,29.96,North,9,0.9,0.0,98,0.00,OVC,,0.00,0.0,WeatherDisplay:10.37,2013-08-31 12:18:00,
2013-08-31 08:23:00,69.9,69.6,29.97,East,83,0.0,0.0,99,0.00,OVC,,0.00,0.0,WeatherDisplay:10.37,2013-08-31 12:23:00,
2013-08-31 08:28:00,69.9,69.6,29.97,East,83,0.0,0.0,99,0.00,OVC,,0.00,0.0,WeatherDisplay:10.37,2013-08-31 12:28:00,
2013-08-31 08:33:00,75.0,73.2,29.96,North,360,0.5,1.1,94,0.00,OVC,,0.00,0.0,WeatherDisplay:10.37,2013-08-31 12:33:00,
2013-08-31 08:38:00,75.7,73.2,29.96,NNE,30,1.2,2.3,92,0.00,OVC,,0.00,0.0,WeatherDisplay:10.37,2013-08-31 12:38:00,
2013-08-31 08:43:00,76.4,73.9,29.96,NNE,30,0.0,0.0,92,0.00,OVC,,0.00,0.0,WeatherDisplay:10.37,2013-08-31 12:43:00,
2013-08-31 08:48:00,77.2,74.0,29.97,NNE,30,0.0,0.0,90,0.00,OVC,,0.00,0.0,WeatherDisplay:10.37,2013-08-31 12:48:00,
2013-08-31 08:53:00,78.0,74.5,29.97,NNE,30,0.0,0.0,89,0.00,OVC,,0.00,0.0,WeatherDisplay:10.37,2013-08-31 12:53:00,
2013-08-31 08:58:00,69.9,69.6,29.97,East,83,0.0,0.0,99,0.00,OVC,,0.00,0.0,WeatherDisplay:10.37,2013-08-31 12:58:00,
2013-08-31 09:03:00,69.9,69.6,29.97,East,83,0.0,0.0,99,0.00,OVC,,0.00,0.0,WeatherDisplay:10.37,2013-08-31 13:03:00,
2013-08-31 09:08:00,80.1,75.2,29.97,NNE,26,0.0,0.0,85,0.00,OVC,,0.00,0.0,WeatherDisplay:10.37,2013-08-31 13:08:00,
2013-08-31 09:14:00,69.9,69.6,29.97,East,83,0.0,0.0,99,0.00,OVC,,0.00,0.0,WeatherDisplay:10.37,2013-08-31 13:14:00,
2013-08-31 09:19:00,81.1,75.8,29.97,NNE,28,0.0,0.0,84,0.00,OVC,,0.00,0.0,WeatherDisplay:10.37,2013-08-31 13:19:00,
2013-08-31 09:24:00,81.6,75.9,29.97,NE,46,0.2,3.5,83,0.00,OVC,,0.00,0.0,WeatherDisplay:10.37,2013-08-31 13:24:00,
2013-08-31 09:29:00,82.0,76.0,29.97,NE,45,3.5,4.0,82,0.00,OVC,,0.00,0.0,WeatherDisplay:10.37,2013-08-31 13:29:00,
2013-08-31 09:34:00,69.9,69.6,29.97,East,83,0.0,0.0,99,0.00,OVC,,0.00,0.0,WeatherDisplay:10.37,2013-08-31 13:34:00,
2013-08-31 09:39:00,82.8,76.4,29.97,ENE,68,2.5,4.0,81,0.00,OVC,,0.00,0.0,WeatherDisplay:10.37,2013-08-31 13:39:00,
2013-08-31 09:44:00,83.2,76.0,29.97,South,175,0.6,3.5,79,0.00,OVC,,0.00,0.0,WeatherDisplay:10.37,2013-08-31 13:44:00,
2013-08-31 09:49:00,84.1,76.5,29.97,East,101,0.2,1.1,78,0.00,OVC,,0.00,0.0,WeatherDisplay:10.37,2013-08-31 13:49:00,
2013-08-31 09:54:00,84.1,76.5,29.97,East,101,0.2,0.0,78,0.00,OVC,,0.00,0.0,WeatherDisplay:10.37,2013-08-31 13:54:00,
2013-08-31 09:59:00,84.1,76.5,29.97,East,101,0.2,0.0,78,0.00,OVC,,0.00,0.0,WeatherDisplay:10.37,2013-08-31 13:59:00,
2013-08-31 10:04:00,84.8,76.0,29.97,SSE,160,1.0,5.8,75,0.00,OVC,,0.00,0.0,WeatherDisplay:10.37,2013-08-31 14:04:00,
2013-08-31 10:09:00,84.8,76.0,29.97,ESE,111,3.3,4.6,75,0.00,OVC,,0.00,0.0,WeatherDisplay:10.37,2013-08-31 14:09:00,
2013-08-31 10:14:00,85.1,76.3,29.98,ESE,123,0.7,2.3,75,0.00,OVC,,0.00,0.0,WeatherDisplay:10.37,2013-08-31 14:14:00,
2013-08-31 10:19:00,85.3,75.7,29.98,ESE,111,4.4,9.2,73,0.00,OVC,,0.00,0.0,WeatherDisplay:10.37,2013-08-31 14:19:00,
2013-08-31 10:24:00,84.1,76.5,29.97,East,101,0.2,0.0,78,0.00,OVC,,0.00,0.0,WeatherDisplay:10.37,2013-08-31 14:24:00,
2013-08-31 10:29:00,84.1,76.5,29.97,East,101,0.2,0.0,78,0.00,OVC,,0.00,0.0,WeatherDisplay:10.37,2013-08-31 14:29:00,
2013-08-31 10:34:00,84.1,76.5,29.97,East,101,0.2,0.0,78,0.00,OVC,,0.00,0.0,WeatherDisplay:10.37,2013-08-31 14:34:00,
2013-08-31 10:39:00,86.4,76.3,29.98,ESE,113,3.7,9.2,72,0.00,OVC,,0.00,0.0,WeatherDisplay:10.37,2013-08-31 14:39:00,
2013-08-31 10:44:00,86.0,74.6,29.98,ESE,115,5.8,8.1,69,0.00,OVC,,0.00,0.0,WeatherDisplay:10.37,2013-08-31 14:44:00,
2013-08-31 10:49:00,85.7,74.8,29.98,East,84,3.6,4.6,70,0.00,OVC,,0.00,0.0,WeatherDisplay:10.37,2013-08-31 14:49:00,
2013-08-31 10:54:00,85.7,75.2,29.98,ENE,65,1.5,3.5,71,0.00,OVC,,0.00,0.0,WeatherDisplay:10.37,2013-08-31 14:54:00,
2013-08-31 10:59:00,85.7,75.2,29.98,ENE,65,1.5,3.5,71,0.00,OVC,,0.00,0.0,WeatherDisplay:10.37,2013-08-31 14:59:00,
2013-08-31 11:04:00,85.7,75.2,29.98,ENE,65,1.5,3.5,71,0.00,OVC,,0.00,0.0,WeatherDisplay:10.37,2013-08-31 15:04:00,
2013-08-31 11:09:00,85.7,75.2,29.98,ENE,65,1.5,3.5,71,0.00,OVC,,0.00,0.0,WeatherDisplay:10.37,2013-08-31 15:09:00,
2013-08-31 11:14:00,86.0,75.5,29.98,ESE,118,4.3,7.0,71,0.00,OVC,,0.00,0.0,WeatherDisplay:10.37,2013-08-31 15:14:00,
2013-08-31 11:19:00,85.8,74.9,29.98,SE,126,4.0,4.6,70,0.00,OVC,,0.00,0.0,WeatherDisplay:10.37,2013-08-31 15:19:00,
2013-08-31 11:24:00,85.7,75.2,29.98,ENE,65,1.5,3.5,71,0.00,OVC,,0.00,0.0,WeatherDisplay:10.37,2013-08-31 15:24:00,
2013-08-31 11:29:00,85.5,75.4,29.97,East,98,3.2,4.6,72,0.00,OVC,,0.00,0.0,WeatherDisplay:10.37,2013-08-31 15:29:00,
2013-08-31 11:34:00,85.7,75.2,29.98,ENE,65,1.5,3.5,71,0.00,OVC,,0.00,0.0,WeatherDisplay:10.37,2013-08-31 15:34:00,
2013-08-31 11:39:00,85.7,75.2,29.98,ENE,65,1.5,3.5,71,0.00,OVC,,0.00,0.0,WeatherDisplay:10.37,2013-08-31 15:39:00,
2013-08-31 11:44:00,86.2,75.3,29.97,ESE,108,3.0,3.5,70,0.00,OVC,,0.00,0.0,WeatherDisplay:10.37,2013-08-31 15:44:00,
2013-08-31 11:49:00,86.2,75.3,29.97,ESE,109,2.3,2.3,70,0.00,OVC,,0.00,0.0,WeatherDisplay:10.37,2013-08-31 15:49:00,
2013-08-31 11:54:00,85.7,76.0,29.97,SSE,163,1.8,9.2,73,0.00,OVC,,0.00,0.0,WeatherDisplay:10.37,2013-08-31 15:54:00,
2013-08-31 11:59:00,86.1,76.0,29.97,ENE,78,4.0,5.8,72,0.00,OVC,,0.00,0.0,WeatherDisplay:10.37,2013-08-31 15:59:00,
2013-08-31 12:04:00,86.2,75.3,29.97,ESE,109,2.3,2.3,70,0.00,OVC,,0.00,0.0,WeatherDisplay:10.37,2013-08-31 16:04:00,
2013-08-31 12:09:00,86.2,75.3,29.97,ESE,109,2.3,2.3,70,0.00,OVC,,0.00,0.0,WeatherDisplay:10.37,2013-08-31 16:09:00,
2013-08-31 12:14:00,85.9,75.4,29.97,SE,132,3.9,6.9,71,0.00,OVC,,0.00,0.0,WeatherDisplay:10.37,2013-08-31 16:14:00,
2013-08-31 12:19:00,86.2,75.3,29.97,ESE,109,2.3,2.3,70,0.00,OVC,,0.00,0.0,WeatherDisplay:10.37,2013-08-31 16:19:00,
2013-08-31 12:24:00,85.9,75.4,29.97,South,190,4.8,6.9,71,0.00,OVC,,0.00,0.0,WeatherDisplay:10.37,2013-08-31 16:24:00,
2013-08-31 12:29:00,86.2,75.3,29.97,ESE,109,2.3,2.3,70,0.00,OVC,,0.00,0.0,WeatherDisplay:10.37,2013-08-31 16:29:00,
2013-08-31 12:34:00,86.2,75.3,29.97,ESE,109,2.3,2.3,70,0.00,OVC,,0.00,0.0,WeatherDisplay:10.37,2013-08-31 16:34:00,
2013-08-31 12:39:00,86.2,75.3,29.97,ESE,109,2.3,2.3,70,0.00,OVC,,0.00,0.0,WeatherDisplay:10.37,2013-08-31 16:39:00,
2013-08-31 12:44:00,86.5,76.0,29.96,ESE,117,3.5,9.2,71,0.00,OVC,,0.00,0.0,WeatherDisplay:10.37,2013-08-31 16:44:00,
2013-08-31 12:49:00,86.2,75.3,29.97,ESE,109,2.3,2.3,70,0.00,OVC,,0.00,0.0,WeatherDisplay:10.37,2013-08-31 16:49:00,
2013-08-31 12:54:00,86.2,75.3,29.97,ESE,109,2.3,2.3,70,0.00,OVC,,0.00,0.0,WeatherDisplay:10.37,2013-08-31 16:54:00,
2013-08-31 12:59:00,86.1,75.6,29.96,East,84,4.4,6.0,71,0.00,OVC,,0.00,0.0,WeatherDisplay:10.37,2013-08-31 16:59:00,
2013-08-31 13:04:00,86.2,75.3,29.97,ESE,109,2.3,2.3,70,0.00,OVC,,0.00,0.0,WeatherDisplay:10.37,2013-08-31 17:04:00,
2013-08-31 13:09:00,86.2,76.5,29.96,ESE,118,6.2,9.2,73,0.00,OVC,,0.00,0.0,WeatherDisplay:10.37,2013-08-31 17:09:00,
2013-08-31 13:14:00,86.2,76.1,29.96,ESE,113,6.3,8.1,72,0.00,OVC,,0.00,0.0,WeatherDisplay:10.37,2013-08-31 17:14:00,
2013-08-31 13:19:00,86.4,76.3,29.96,SSE,156,2.7,4.6,72,0.00,OVC,,0.00,0.0,WeatherDisplay:10.37,2013-08-31 17:19:00,
2013-08-31 13:24:00,86.2,75.3,29.97,ESE,109,2.3,2.3,70,0.00,OVC,,0.00,0.0,WeatherDisplay:10.37,2013-08-31 17:24:00,
2013-08-31 13:29:00,86.2,75.3,29.97,ESE,109,2.3,2.3,70,0.00,OVC,,0.00,0.0,WeatherDisplay:10.37,2013-08-31 17:29:00,
2013-08-31 13:34:00,86.2,75.3,29.97,ESE,109,2.3,2.3,70,0.00,OVC,,0.00,0.0,WeatherDisplay:10.37,2013-08-31 17:34:00,
2013-08-31 13:39:00,86.5,76.0,29.95,NE,42,0.9,3.5,71,0.00,OVC,,0.00,0.0,WeatherDisplay:10.37,2013-08-31 17:39:00,
2013-08-31 13:44:00,86.2,75.3,29.97,ESE,109,2.3,2.3,70,0.00,OVC,,0.00,0.0,WeatherDisplay:10.37,2013-08-31 17:44:00,
2013-08-31 13:49:00,86.9,75.9,29.95,East,88,5.1,6.9,70,0.00,OVC,,0.00,0.0,WeatherDisplay:10.37,2013-08-31 17:49:00,
2013-08-31 13:54:00,86.8,75.0,29.95,ENE,63,4.6,6.9,68,0.00,OVC,,0.00,0.0,WeatherDisplay:10.37,2013-08-31 17:54:00,
2013-08-31 13:59:00,86.2,75.3,29.97,ESE,109,2.3,2.3,70,0.00,OVC,,0.00,0.0,WeatherDisplay:10.37,2013-08-31 17:59:00,
2013-08-31 14:04:00,86.2,75.3,29.97,ESE,109,2.3,2.3,70,0.00,OVC,,0.00,0.0,WeatherDisplay:10.37,2013-08-31 18:04:00,
2013-08-31 14:10:00,86.2,75.3,29.97,ESE,109,2.3,2.3,70,0.00,OVC,,0.00,0.0,WeatherDisplay:10.37,2013-08-31 18:10:00,
2013-08-31 14:15:00,86.2,75.3,29.97,ESE,109,2.3,2.3,70,0.00,OVC,,0.00,0.0,WeatherDisplay:10.37,2013-08-31 18:15:00,
2013-08-31 14:20:00,86.3,75.8,29.94,ESE,107,5.1,9.2,71,0.00,OVC,,0.00,0.0,WeatherDisplay:10.37,2013-08-31 18:20:00,
2013-08-31 14:25:00,86.2,75.3,29.97,ESE,109,2.3,2.3,70,0.00,OVC,,0.00,0.0,WeatherDisplay:10.37,2013-08-31 18:25:00,
2013-08-31 14:30:00,86.2,75.3,29.97,ESE,109,2.3,2.3,70,0.00,OVC,,0.00,0.0,WeatherDisplay:10.37,2013-08-31 18:30:00,
2013-08-31 14:35:00,85.5,76.7,29.93,South,186,3.9,9.2,75,0.00,OVC,,0.00,0.0,WeatherDisplay:10.37,2013-08-31 18:35:00,
2013-08-31 14:40:00,86.2,75.3,29.97,ESE,109,2.3,2.3,70,0.00,OVC,,0.00,0.0,WeatherDisplay:10.37,2013-08-31 18:40:00,
2013-08-31 14:45:00,85.3,76.5,29.93,East,101,8.2,11.5,75,0.00,OVC,,0.00,0.0,WeatherDisplay:10.37,2013-08-31 18:45:00,
2013-08-31 14:50:00,85.0,76.6,29.93,ESE,105,4.3,6.9,76,0.00,OVC,,0.00,0.0,WeatherDisplay:10.37,2013-08-31 18:50:00,
2013-08-31 14:55:00,85.0,76.2,29.93,East,84,2.9,13.8,75,0.00,OVC,,0.00,0.0,WeatherDisplay:10.37,2013-08-31 18:55:00,
2013-08-31 15:00:00,85.2,76.4,29.93,ENE,66,6.3,11.5,75,0.00,OVC,,0.00,0.0,WeatherDisplay:10.37,2013-08-31 19:00:00,
2013-08-31 15:05:00,85.2,76.4,29.92,ESE,121,4.6,10.4,75,0.00,OVC,,0.00,0.0,WeatherDisplay:10.37,2013-08-31 19:05:00,
2013-08-31 15:10:00,85.1,76.3,29.92,ESE,102,4.5,6.9,75,0.00,OVC,,0.00,0.0,WeatherDisplay:10.37,2013-08-31 19:10:00,
2013-08-31 15:15:00,85.1,76.3,29.92,SSE,153,3.2,8.1,75,0.00,OVC,,0.00,0.0,WeatherDisplay:10.37,2013-08-31 19:15:00,
2013-08-31 15:20:00,85.5,76.7,29.92,East,90,2.0,3.5,75,0.00,OVC,,0.00,0.0,WeatherDisplay:10.37,2013-08-31 19:20:00,
2013-08-31 15:25:00,85.7,76.5,29.91,South,171,2.5,8.1,74,0.00,OVC,,0.00,0.0,WeatherDisplay:10.37,2013-08-31 19:25:00,
2013-08-31 15:30:00,86.0,75.9,29.92,SE,132,4.5,9.2,72,0.00,OVC,,0.00,0.0,WeatherDisplay:10.37,2013-08-31 19:30:00,
2013-08-31 15:35:00,85.8,75.7,29.92,ESE,117,4.9,9.2,72,0.00,OVC,,0.00,0.0,WeatherDisplay:10.37,2013-08-31 19:35:00,
2013-08-31 15:40:00,85.7,76.0,29.91,SE,142,3.7,6.9,73,0.00,OVC,,0.00,0.0,WeatherDisplay:10.37,2013-08-31 19:40:00,
2013-08-31 15:45:00,85.7,76.0,29.91,ESE,121,5.5,6.9,73,0.00,OVC,,0.00,0.0,WeatherDisplay:10.37,2013-08-31 19:45:00,
2013-08-31 15:50:00,85.7,76.5,29.91,East,94,4.2,6.9,74,0.00,OVC,,0.00,0.0,WeatherDisplay:10.37,2013-08-31 19:50:00,
2013-08-31 15:55:00,86.2,75.3,29.97,ESE,109,2.3,2.3,70,0.00,OVC,,0.00,0.0,WeatherDisplay:10.37,2013-08-31 19:55:00,
2013-08-31 16:00:00,85.2,76.4,29.91,ENE,73,4.5,7.0,75,0.00,OVC,,0.00,0.0,WeatherDisplay:10.37,2013-08-31 20:00:00,
2013-08-31 16:05:00,86.2,75.3,29.97,ESE,109,2.3,2.3,70,0.00,OVC,,0.00,0.0,WeatherDisplay:10.37,2013-08-31 20:05:00,
2013-08-31 16:10:00,86.2,75.3,29.97,ESE,109,2.3,2.3,70,0.00,OVC,,0.00,0.0,WeatherDisplay:10.37,2013-08-31 20:10:00,
2013-08-31 16:15:00,86.0,76.3,29.91,ESE,106,4.7,9.2,73,0.00,OVC,,0.00,0.0,WeatherDisplay:10.37,2013-08-31 20:15:00,
2013-08-31 16:20:00,86.0,76.3,29.91,SE,132,3.8,3.8,73,0.00,OVC,,0.00,0.0,WeatherDisplay:10.37,2013-08-31 20:20:00,
2013-08-31 16:25:00,85.4,76.2,29.91,SE,132,4.0,5.8,74,0.00,OVC,,0.00,0.0,WeatherDisplay:10.37,2013-08-31 20:25:00,
2013-08-31 16:30:00,85.5,76.3,29.91,ENE,71,3.7,5.0,74,0.00,OVC,,0.00,0.0,WeatherDisplay:10.37,2013-08-31 20:30:00,
2013-08-31 16:35:00,85.2,76.4,29.91,ESE,121,7.4,9.2,75,0.00,OVC,,0.00,0.0,WeatherDisplay:10.37,2013-08-31 20:35:00,
2013-08-31 16:40:00,84.7,76.7,29.91,ENE,77,3.0,5.0,77,0.00,OVC,,0.00,0.0,WeatherDisplay:10.37,2013-08-31 20:40:00,
2013-08-31 16:45:00,86.0,76.3,29.91,SE,132,3.8,3.8,73,0.00,OVC,,0.00,0.0,WeatherDisplay:10.37,2013-08-31 20:45:00,
2013-08-31 16:50:00,86.0,76.3,29.91,SE,132,3.8,3.8,73,0.00,OVC,,0.00,0.0,WeatherDisplay:10.37,2013-08-31 20:50:00,
2013-08-31 16:55:00,84.5,76.5,29.90,ESE,112,8.5,11.5,77,0.00,OVC,,0.00,0.0,WeatherDisplay:10.37,2013-08-31 20:55:00,
2013-08-31 17:00:00,86.0,76.3,29.91,SE,132,3.8,3.8,73,0.00,OVC,,0.00,0.0,WeatherDisplay:10.37,2013-08-31 21:00:00,
2013-08-31 17:05:00,86.0,76.3,29.91,SE,132,3.8,3.8,73,0.00,OVC,,0.00,0.0,WeatherDisplay:10.37,2013-08-31 21:05:00,
2013-08-31 17:10:00,86.0,76.3,29.91,SE,132,3.8,3.8,73,0.00,OVC,,0.00,0.0,WeatherDisplay:10.37,2013-08-31 21:10:00,
2013-08-31 17:15:00,86.0,76.3,29.91,SE,132,3.8,3.8,73,0.00,OVC,,0.00,0.0,WeatherDisplay:10.37,2013-08-31 21:15:00,
2013-08-31 17:20:00,86.0,76.3,29.91,SE,132,3.8,3.8,73,0.00,OVC,,0.00,0.0,WeatherDisplay:10.37,2013-08-31 21:20:00,
2013-08-31 17:25:00,86.0,76.3,29.91,SE,132,3.8,3.8,73,0.00,OVC,,0.00,0.0,WeatherDisplay:10.37,2013-08-31 21:25:00,
2013-08-31 17:30:00,84.2,76.2,29.90,ENE,65,4.3,4.6,77,0.00,OVC,,0.00,0.0,WeatherDisplay:10.37,2013-08-31 21:30:00,
2013-08-31 17:35:00,86.0,76.3,29.91,SE,132,3.8,3.8,73,0.00,OVC,,0.00,0.0,WeatherDisplay:10.37,2013-08-31 21:35:00,
2013-08-31 17:40:00,84.6,76.2,29.90,South,178,1.9,3.5,76,0.00,OVC,,0.00,0.0,WeatherDisplay:10.37,2013-08-31 21:40:00,
2013-08-31 17:45:00,85.0,76.6,29.90,ESE,111,2.7,4.6,76,0.00,OVC,,0.00,0.0,WeatherDisplay:10.37,2013-08-31 21:45:00,
2013-08-31 17:50:00,86.0,76.3,29.91,SE,132,3.8,3.8,73,0.00,OVC,,0.00,0.0,WeatherDisplay:10.37,2013-08-31 21:50:00,
2013-08-31 17:55:00,85.1,76.3,29.91,SE,135,1.0,0.0,75,0.00,OVC,,0.00,0.0,WeatherDisplay:10.37,2013-08-31 21:55:00,
2013-08-31 18:00:00,85.4,76.6,29.90,SE,128,3.1,4.6,75,0.00,OVC,,0.00,0.0,WeatherDisplay:10.37,2013-08-31 22:00:00,
2013-08-31 18:05:00,85.0,75.8,29.91,ESE,105,2.0,2.0,74,0.00,OVC,,0.00,0.0,WeatherDisplay:10.37,2013-08-31 22:05:00,
2013-08-31 18:10:00,85.1,75.9,29.91,ESE,112,3.1,3.1,74,0.00,OVC,,0.00,0.0,WeatherDisplay:10.37,2013-08-31 22:10:00,
2013-08-31 18:15:00,84.7,75.5,29.91,South,173,0.5,3.5,74,0.00,OVC,,0.00,0.0,WeatherDisplay:10.37,2013-08-31 22:15:00,
2013-08-31 18:20:00,85.0,75.8,29.91,ESE,105,2.0,2.0,74,0.00,OVC,,0.00,0.0,WeatherDisplay:10.37,2013-08-31 22:20:00,
2013-08-31 18:25:00,84.0,76.0,29.91,East,80,1.7,4.6,77,0.00,OVC,,0.00,0.0,WeatherDisplay:10.37,2013-08-31 22:25:00,
2013-08-31 18:30:00,83.8,75.8,29.90,SSE,147,1.9,3.5,77,0.00,OVC,,0.00,0.0,WeatherDisplay:10.37,2013-08-31 22:30:00,
2013-08-31 18:35:00,85.0,75.8,29.91,ESE,105,2.0,2.0,74,0.00,OVC,,0.00,0.0,WeatherDisplay:10.37,2013-08-31 22:35:00,
2013-08-31 18:40:00,85.0,75.8,29.91,ESE,105,2.0,2.0,74,0.00,OVC,,0.00,0.0,WeatherDisplay:10.37,2013-08-31 22:40:00,
2013-08-31 18:45:00,82.8,76.0,29.91,SSW,210,0.7,2.3,80,0.00,OVC,,0.00,0.0,WeatherDisplay:10.37,2013-08-31 22:45:00,
2013-08-31 18:50:00,82.6,75.4,29.91,ESE,102,2.3,3.5,79,0.00,OVC,,0.00,0.0,WeatherDisplay:10.37,2013-08-31 22:50:00,
2013-08-31 18:55:00,82.4,75.2,29.91,ESE,109,2.9,0.0,79,0.00,OVC,,0.00,0.0,WeatherDisplay:10.37,2013-08-31 22:55:00,
2013-08-31 19:00:00,82.4,75.2,29.91,ESE,109,2.9,0.0,79,0.00,OVC,,0.00,0.0,WeatherDisplay:10.37,2013-08-31 23:00:00,
2013-08-31 19:05:00,82.4,75.2,29.91,ESE,109,2.9,0.0,79,0.00,OVC,,0.00,0.0,WeatherDisplay:10.37,2013-08-31 23:05:00,
2013-08-31 19:10:00,82.4,75.6,29.91,ESE,118,1.0,4.6,80,0.00,OVC,,0.00,0.0,WeatherDisplay:10.37,2013-08-31 23:10:00,
2013-08-31 19:16:00,81.5,75.5,29.90,East,101,0.0,2.3,82,0.00,OVC,,0.00,0.0,WeatherDisplay:10.37,2013-08-31 23:16:00,
2013-08-31 19:21:00,81.3,75.6,29.91,SE,144,0.0,0.0,83,0.00,OVC,,0.00,0.0,WeatherDisplay:10.37,2013-08-31 23:21:00,
2013-08-31 19:31:00,80.9,75.2,29.91,ESE,120,0.0,0.0,83,0.00,OVC,,0.00,0.0,WeatherDisplay:10.37,2013-08-31 23:31:00,
2013-08-31 19:36:00,82.4,75.6,29.91,ESE,118,1.0,4.6,80,0.00,OVC,,0.00,0.0,WeatherDisplay:10.37,2013-08-31 23:36:00,
2013-08-31 19:41:00,82.4,75.6,29.91,ESE,118,1.0,4.6,80,0.00,OVC,,0.00,0.0,WeatherDisplay:10.37,2013-08-31 23:41:00,
2013-08-31 19:46:00,80.4,75.1,29.91,SSE,158,0.0,0.0,84,0.00,OVC,,0.00,0.0,WeatherDisplay:10.37,2013-08-31 23:46:00,
2013-08-31 19:51:00,80.3,75.0,29.91,SSE,161,0.0,0.0,84,0.00,OVC,,0.00,0.0,WeatherDisplay:10.37,2013-08-31 23:51:00,
2013-08-31 19:56:00,80.1,75.2,29.91,SSE,163,0.1,1.1,85,0.00,OVC,,0.00,0.0,WeatherDisplay:10.37,2013-08-31 23:56:00,
2013-08-31 20:01:00,79.9,75.0,29.91,South,188,0.2,1.1,85,0.00,OVC,,0.00,0.0,WeatherDisplay:10.37,2013-09-01 00:01:00,
2013-08-31 20:06:00,82.4,75.6,29.91,ESE,118,1.0,4.6,80,0.00,CLR,OVC,0.00,0.0,WeatherDisplay:10.37,2013-09-01 00:06:00,
2013-08-31 20:11:00,79.6,75.0,29.92,South,180,0.2,1.1,86,0.00,CLR,OVC,0.00,0.0,WeatherDisplay:10.37,2013-09-01 00:11:00,
2013-08-31 20:16:00,82.4,75.6,29.91,ESE,118,1.0,4.6,80,0.00,CLR,OVC,0.00,0.0,WeatherDisplay:10.37,2013-09-01 00:16:00,
2013-08-31 20:21:00,79.4,74.8,29.92,South,182,0.0,1.1,86,0.00,CLR,OVC,0.00,0.0,WeatherDisplay:10.37,2013-09-01 00:21:00,
2013-08-31 20:26:00,82.4,75.6,29.91,ESE,118,1.0,4.6,80,0.00,CLR,OVC,0.00,0.0,WeatherDisplay:10.37,2013-09-01 00:26:00,
2013-08-31 20:31:00,82.4,75.6,29.91,ESE,118,1.0,4.6,80,0.00,CLR,OVC,0.00,0.0,WeatherDisplay:10.37,2013-09-01 00:31:00,
2013-08-31 20:37:00,78.9,74.7,29.92,South,182,0.0,0.0,87,0.00,CLR,OVC,0.00,0.0,WeatherDisplay:10.37,2013-09-01 00:37:00,
2013-08-31 20:42:00,82.4,75.6,29.91,ESE,118,1.0,4.6,80,0.00,CLR,OVC,0.00,0.0,WeatherDisplay:10.37,2013-09-01 00:42:00,
2013-08-31 20:47:00,78.6,74.7,29.92,South,182,0.0,0.0,88,0.00,CLR,OVC,0.00,0.0,WeatherDisplay:10.37,2013-09-01 00:47:00,
2013-08-31 20:52:00,78.5,74.6,29.92,South,182,0.0,0.0,88,0.00,CLR,OVC,0.00,0.0,WeatherDisplay:10.37,2013-09-01 00:52:00,
2013-08-31 20:57:00,78.3,74.8,29.92,South,179,0.0,0.0,89,0.00,CLR,OVC,0.00,0.0,WeatherDisplay:10.37,2013-09-01 00:57:00,
2013-08-31 21:02:00,78.2,74.7,29.92,SSE,163,0.3,1.1,89,0.00,CLR,OVC,0.00,0.0,WeatherDisplay:10.37,2013-09-01 01:02:00,
2013-08-31 21:07:00,82.4,75.6,29.91,ESE,118,1.0,4.6,80,0.00,CLR,OVC,0.00,0.0,WeatherDisplay:10.37,2013-09-01 01:07:00,
2013-08-31 21:12:00,78.1,74.9,29.92,South,175,1.6,3.5,90,0.00,CLR,OVC,0.00,0.0,WeatherDisplay:10.37,2013-09-01 01:12:00,
2013-08-31 21:17:00,82.4,75.6,29.91,ESE,118,1.0,4.6,80,0.00,CLR,OVC,0.00,0.0,WeatherDisplay:10.37,2013-09-01 01:17:00,
2013-08-31 21:22:00,78.1,74.9,29.92,South,172,0.0,0.0,90,0.00,CLR,OVC,0.00,0.0,WeatherDisplay:10.37,2013-09-01 01:22:00,
2013-08-31 21:27:00,78.0,74.8,29.92,South,172,0.0,0.0,90,0.00,CLR,OVC,0.00,0.0,WeatherDisplay:10.37,2013-09-01 01:27:00,
2013-08-31 21:32:00,77.9,75.1,29.92,South,169,0.2,1.0,91,0.00,CLR,OVC,0.00,0.0,WeatherDisplay:10.37,2013-09-01 01:32:00,
2013-08-31 21:37:00,77.9,75.1,29.92,South,171,0.2,1.1,91,0.00,CLR,OVC,0.00,0.0,WeatherDisplay:10.37,2013-09-01 01:37:00,
2013-08-31 21:42:00,77.9,75.4,29.92,South,171,2.2,0.0,92,0.00,CLR,OVC,0.00,0.0,WeatherDisplay:10.37,2013-09-01 01:42:00,
2013-08-31 21:47:00,77.9,75.4,29.92,South,171,0.1,0.0,92,0.00,CLR,OVC,0.00,0.0,WeatherDisplay:10.37,2013-09-01 01:47:00,
2013-08-31 21:52:00,77.9,75.4,29.92,South,171,2.2,0.0,92,0.00,CLR,OVC,0.00,0.0,WeatherDisplay:10.37,2013-09-01 01:52:00,
2013-08-31 21:57:00,77.9,75.4,29.92,South,171,2.2,0.0,92,0.00,CLR,OVC,0.00,0.0,WeatherDisplay:10.37,2013-09-01 01:57:00,
2013-08-31 22:02:00,77.9,75.4,29.92,South,171,0.1,0.0,92,0.00,CLR,OVC,0.00,0.0,WeatherDisplay:10.37,2013-09-01 02:02:00,
2013-08-31 22:07:00,77.9,75.4,29.92,South,171,2.2,0.0,92,0.00,CLR,OVC,0.00,0.0,WeatherDisplay:10.37,2013-09-01 02:07:00,
2013-08-31 22:12:00,77.9,75.4,29.92,South,171,0.1,0.0,92,0.00,CLR,OVC,0.00,0.0,WeatherDisplay:10.37,2013-09-01 02:12:00,
2013-08-31 22:17:00,77.9,75.4,29.92,South,171,0.1,0.0,92,0.00,CLR,OVC,0.00,0.0,WeatherDisplay:10.37,2013-09-01 02:17:00,
2013-08-31 22:22:00,77.9,75.4,29.92,South,171,0.1,0.0,92,0.00,CLR,OVC,0.00,0.0,WeatherDisplay:10.37,2013-09-01 02:22:00,
2013-08-31 22:27:00,77.9,75.4,29.92,South,171,2.2,0.0,92,0.00,CLR,OVC,0.00,0.0,WeatherDisplay:10.37,2013-09-01 02:27:00,
2013-08-31 22:32:00,77.9,75.4,29.92,South,171,0.1,0.0,92,0.00,CLR,OVC,0.00,0.0,WeatherDisplay:10.37,2013-09-01 02:32:00,
2013-08-31 22:37:00,77.9,75.4,29.92,South,171,2.2,0.0,92,0.00,CLR,OVC,0.00,0.0,WeatherDisplay:10.37,2013-09-01 02:37:00,
2013-08-31 22:42:00,77.9,75.4,29.92,South,171,2.2,0.0,92,0.00,CLR,OVC,0.00,0.0,WeatherDisplay:10.37,2013-09-01 02:42:00,
2013-08-31 22:47:00,77.9,75.4,29.92,South,171,0.1,0.0,92,0.00,CLR,OVC,0.00,0.0,WeatherDisplay:10.37,2013-09-01 02:47:00,
2013-08-31 22:52:00,77.9,75.4,29.92,South,171,2.2,0.0,92,0.00,CLR,OVC,0.00,0.0,WeatherDisplay:10.37,2013-09-01 02:52:00,
2013-08-31 22:57:00,77.9,75.4,29.92,South,171,0.1,0.0,92,0.00,CLR,OVC,0.00,0.0,WeatherDisplay:10.37,2013-09-01 02:57:00,
2013-08-31 23:02:00,77.9,75.4,29.92,South,171,0.1,0.0,92,0.00,CLR,OVC,0.00,0.0,WeatherDisplay:10.37,2013-09-01 03:02:00,
2013-08-31 23:07:00,77.9,75.4,29.92,South,171,0.1,0.0,92,0.00,CLR,OVC,0.00,0.0,WeatherDisplay:10.37,2013-09-01 03:07:00,
2013-08-31 23:12:00,77.9,75.4,29.92,South,171,2.2,0.0,92,0.00,CLR,OVC,0.00,0.0,WeatherDisplay:10.37,2013-09-01 03:12:00,
2013-08-31 23:17:00,77.9,75.4,29.92,South,171,2.2,0.0,92,0.00,CLR,OVC,0.00,0.0,WeatherDisplay:10.37,2013-09-01 03:17:00,
2013-08-31 23:22:00,77.9,75.4,29.92,South,171,0.1,0.0,92,0.00,CLR,OVC,0.00,0.0,WeatherDisplay:10.37,2013-09-01 03:22:00,
2013-08-31 23:27:00,77.9,75.4,29.92,South,171,2.2,0.0,92,0.00,CLR,OVC,0.00,0.0,WeatherDisplay:10.37,2013-09-01 03:27:00,
2013-08-31 23:32:00,77.9,75.4,29.92,South,171,0.1,0.0,92,0.00,CLR,OVC,0.00,0.0,WeatherDisplay:10.37,2013-09-01 03:32:00,
2013-08-31 23:37:00,77.9,75.4,29.92,South,171,0.1,0.0,92,0.00,CLR,OVC,0.00,0.0,WeatherDisplay:10.37,2013-09-01 03:37:00,
2013-08-31 23:42:00,77.9,75.4,29.92,South,171,2.2,0.0,92,0.00,CLR,OVC,0.00,0.0,WeatherDisplay:10.37,2013-09-01 03:42:00,
2013-08-31 23:47:00,77.9,75.4,29.92,South,171,2.2,0.0,92,0.00,CLR,OVC,0.00,0.0,WeatherDisplay:10.37,2013-09-01 03:47:00,
2013-08-31 23:52:00,77.9,75.4,29.92,South,171,0.1,0.0,92,0.00,CLR,OVC,0.00,0.0,WeatherDisplay:10.37,2013-09-01 03:52:00,
2013-08-31 23:57:00,77.9,75.4,29.92,South,171,2.2,0.0,92,0.00,CLR,OVC,0.00,0.0,WeatherDisplay:10.37,2013-09-01 03:57:00,